sensor_id;sensor_type;location;lat;lon;timestamp;temperature;humidity
30063;DHT22;16889;67.864;24.990;2024-01-25T00:04:17;-24.50;99.90
30063;DHT22;16889;67.864;24.990;2024-01-25T00:09:03;-24.40;99.90
30063;DHT22;16889;67.864;24.990;2024-01-25T00:13:49;-24.60;99.90
30063;DHT22;16889;67.864;24.990;2024-01-25T00:18:35;-24.90;99.90
30063;DHT22;16889;67.864;24.990;2024-01-25T00:23:21;-25.30;99.90
30063;DHT22;16889;67.864;24.990;2024-01-25T00:28:07;-25.60;99.90
30063;DHT22;16889;67.864;24.990;2024-01-25T00:32:53;-25.30;99.90
30063;DHT22;16889;67.864;24.990;2024-01-25T00:37:40;-25.00;99.90
30063;DHT22;16889;67.864;24.990;2024-01-25T00:42:26;-25.20;99.90
30063;DHT22;16889;67.864;24.990;2024-01-25T00:47:14;-25.30;99.90
30063;DHT22;16889;67.864;24.990;2024-01-25T00:52:02;-25.50;99.90
30063;DHT22;16889;67.864;24.990;2024-01-25T00:56:48;-25.40;99.90
30063;DHT22;16889;67.864;24.990;2024-01-25T01:01:38;-25.50;99.90
30063;DHT22;16889;67.864;24.990;2024-01-25T01:06:25;-25.40;99.90
30063;DHT22;16889;67.864;24.990;2024-01-25T01:11:11;-25.20;99.90
30063;DHT22;16889;67.864;24.990;2024-01-25T01:15:57;-25.20;99.90
30063;DHT22;16889;67.864;24.990;2024-01-25T01:20:42;-25.20;99.90
30063;DHT22;16889;67.864;24.990;2024-01-25T01:25:28;-25.20;99.90
30063;DHT22;16889;67.864;24.990;2024-01-25T01:30:14;-25.10;99.90
30063;DHT22;16889;67.864;24.990;2024-01-25T01:35:00;-25.00;99.90
30063;DHT22;16889;67.864;24.990;2024-01-25T01:39:46;-25.20;99.90
30063;DHT22;16889;67.864;24.990;2024-01-25T01:44:32;-25.50;99.90
30063;DHT22;16889;67.864;24.990;2024-01-25T01:49:18;-25.20;99.90
30063;DHT22;16889;67.864;24.990;2024-01-25T01:54:07;-25.30;99.90
30063;DHT22;16889;67.864;24.990;2024-01-25T01:58:54;-25.50;99.90
30063;DHT22;16889;67.864;24.990;2024-01-25T02:03:41;-25.40;99.90
30063;DHT22;16889;67.864;24.990;2024-01-25T02:08:28;-25.40;99.90
30063;DHT22;16889;67.864;24.990;2024-01-25T02:13:14;-25.40;99.90
30063;DHT22;16889;67.864;24.990;2024-01-25T02:17:59;-25.40;99.90
30063;DHT22;16889;67.864;24.990;2024-01-25T02:22:45;-25.60;99.90
30063;DHT22;16889;67.864;24.990;2024-01-25T02:27:31;-25.60;99.90
30063;DHT22;16889;67.864;24.990;2024-01-25T02:32:19;-25.30;99.90
30063;DHT22;16889;67.864;24.990;2024-01-25T02:37:04;-25.10;99.90
30063;DHT22;16889;67.864;24.990;2024-01-25T02:41:51;-25.10;99.90
30063;DHT22;16889;67.864;24.990;2024-01-25T02:46:37;-25.60;99.90
30063;DHT22;16889;67.864;24.990;2024-01-25T02:51:23;-25.70;99.90
30063;DHT22;16889;67.864;24.990;2024-01-25T02:56:09;-25.60;99.90
30063;DHT22;16889;67.864;24.990;2024-01-25T03:00:55;-25.60;99.90
30063;DHT22;16889;67.864;24.990;2024-01-25T03:05:41;-25.70;99.90
30063;DHT22;16889;67.864;24.990;2024-01-25T03:10:27;-25.70;99.90
30063;DHT22;16889;67.864;24.990;2024-01-25T03:15:13;-25.70;99.90
30063;DHT22;16889;67.864;24.990;2024-01-25T03:20:00;-25.70;99.90
30063;DHT22;16889;67.864;24.990;2024-01-25T03:24:45;-25.70;99.90
30063;DHT22;16889;67.864;24.990;2024-01-25T03:29:32;-25.60;99.90
30063;DHT22;16889;67.864;24.990;2024-01-25T03:34:18;-25.80;99.90
30063;DHT22;16889;67.864;24.990;2024-01-25T03:39:04;-25.70;99.90
30063;DHT22;16889;67.864;24.990;2024-01-25T03:43:50;-25.60;99.90
30063;DHT22;16889;67.864;24.990;2024-01-25T03:48:37;-25.50;99.90
30063;DHT22;16889;67.864;24.990;2024-01-25T03:53:23;-25.50;99.90
30063;DHT22;16889;67.864;24.990;2024-01-25T03:58:09;-25.60;99.90
30063;DHT22;16889;67.864;24.990;2024-01-25T04:02:55;-25.60;99.90
30063;DHT22;16889;67.864;24.990;2024-01-25T04:07:41;-25.80;99.90
30063;DHT22;16889;67.864;24.990;2024-01-25T04:12:26;-26.10;99.90
30063;DHT22;16889;67.864;24.990;2024-01-25T04:17:12;-25.80;99.90
30063;DHT22;16889;67.864;24.990;2024-01-25T04:21:58;-25.70;99.90
30063;DHT22;16889;67.864;24.990;2024-01-25T04:26:44;-26.10;99.90
30063;DHT22;16889;67.864;24.990;2024-01-25T04:31:30;-26.20;99.90
30063;DHT22;16889;67.864;24.990;2024-01-25T04:36:16;-26.30;99.90
30063;DHT22;16889;67.864;24.990;2024-01-25T04:41:02;-26.30;99.90
30063;DHT22;16889;67.864;24.990;2024-01-25T04:45:48;-26.10;99.90
30063;DHT22;16889;67.864;24.990;2024-01-25T04:50:34;-25.90;99.90
30063;DHT22;16889;67.864;24.990;2024-01-25T04:55:21;-25.80;99.90
30063;DHT22;16889;67.864;24.990;2024-01-25T05:00:08;-25.90;99.90
30063;DHT22;16889;67.864;24.990;2024-01-25T05:04:54;-26.20;99.90
30063;DHT22;16889;67.864;24.990;2024-01-25T05:09:41;-26.40;99.90
30063;DHT22;16889;67.864;24.990;2024-01-25T05:14:27;-26.10;99.90
30063;DHT22;16889;67.864;24.990;2024-01-25T05:19:12;-25.80;99.90
30063;DHT22;16889;67.864;24.990;2024-01-25T05:23:58;-25.80;99.90
30063;DHT22;16889;67.864;24.990;2024-01-25T05:28:45;-25.90;99.90
30063;DHT22;16889;67.864;24.990;2024-01-25T05:33:31;-26.00;99.90
30063;DHT22;16889;67.864;24.990;2024-01-25T05:38:17;-26.00;99.90
30063;DHT22;16889;67.864;24.990;2024-01-25T05:43:03;-26.00;99.90
30063;DHT22;16889;67.864;24.990;2024-01-25T05:47:50;-25.90;99.90
30063;DHT22;16889;67.864;24.990;2024-01-25T05:52:36;-25.90;99.90
30063;DHT22;16889;67.864;24.990;2024-01-25T05:57:23;-25.90;99.90
30063;DHT22;16889;67.864;24.990;2024-01-25T06:02:09;-26.20;99.90
30063;DHT22;16889;67.864;24.990;2024-01-25T06:06:55;-26.20;99.90
30063;DHT22;16889;67.864;24.990;2024-01-25T06:11:41;-26.00;99.90
30063;DHT22;16889;67.864;24.990;2024-01-25T06:16:27;-26.30;99.90
30063;DHT22;16889;67.864;24.990;2024-01-25T06:21:13;-26.20;99.90
30063;DHT22;16889;67.864;24.990;2024-01-25T06:25:59;-26.50;99.90
30063;DHT22;16889;67.864;24.990;2024-01-25T06:30:45;-26.60;99.90
30063;DHT22;16889;67.864;24.990;2024-01-25T06:35:30;-26.50;99.90
30063;DHT22;16889;67.864;24.990;2024-01-25T06:40:17;-26.50;99.90
30063;DHT22;16889;67.864;24.990;2024-01-25T06:45:03;-26.50;99.90
30063;DHT22;16889;67.864;24.990;2024-01-25T06:49:49;-26.40;99.90
30063;DHT22;16889;67.864;24.990;2024-01-25T06:54:37;-26.20;99.90
30063;DHT22;16889;67.864;24.990;2024-01-25T06:59:23;-26.10;99.90
30063;DHT22;16889;67.864;24.990;2024-01-25T07:04:09;-26.00;99.90
30063;DHT22;16889;67.864;24.990;2024-01-25T07:08:55;-26.50;99.90
30063;DHT22;16889;67.864;24.990;2024-01-25T07:13:41;-26.80;99.90
30063;DHT22;16889;67.864;24.990;2024-01-25T07:18:27;-26.80;99.90
30063;DHT22;16889;67.864;24.990;2024-01-25T07:23:13;-26.90;99.90
30063;DHT22;16889;67.864;24.990;2024-01-25T07:27:59;-27.10;99.90
30063;DHT22;16889;67.864;24.990;2024-01-25T07:32:45;-27.30;99.90
30063;DHT22;16889;67.864;24.990;2024-01-25T07:37:31;-27.90;99.90
30063;DHT22;16889;67.864;24.990;2024-01-25T07:42:17;-28.00;99.90
30063;DHT22;16889;67.864;24.990;2024-01-25T07:47:03;-27.70;99.90
30063;DHT22;16889;67.864;24.990;2024-01-25T07:51:49;-27.50;99.90
30063;DHT22;16889;67.864;24.990;2024-01-25T07:56:35;-27.20;99.90
30063;DHT22;16889;67.864;24.990;2024-01-25T08:01:21;-26.80;99.90
30063;DHT22;16889;67.864;24.990;2024-01-25T08:06:07;-26.70;99.90
30063;DHT22;16889;67.864;24.990;2024-01-25T08:10:53;-26.80;99.90
30063;DHT22;16889;67.864;24.990;2024-01-25T08:15:39;-26.70;99.90
30063;DHT22;16889;67.864;24.990;2024-01-25T08:20:25;-26.70;99.90
30063;DHT22;16889;67.864;24.990;2024-01-25T08:25:11;-26.40;99.90
30063;DHT22;16889;67.864;24.990;2024-01-25T08:29:59;-26.40;99.90
30063;DHT22;16889;67.864;24.990;2024-01-25T08:34:45;-26.30;99.90
30063;DHT22;16889;67.864;24.990;2024-01-25T08:39:31;-26.30;99.90
30063;DHT22;16889;67.864;24.990;2024-01-25T08:44:17;-26.20;99.90
30063;DHT22;16889;67.864;24.990;2024-01-25T08:49:03;-26.40;99.90
30063;DHT22;16889;67.864;24.990;2024-01-25T08:53:54;-26.40;99.90
30063;DHT22;16889;67.864;24.990;2024-01-25T08:58:40;-26.10;99.90
30063;DHT22;16889;67.864;24.990;2024-01-25T09:03:26;-26.10;99.90
30063;DHT22;16889;67.864;24.990;2024-01-25T09:08:12;-26.00;99.90
30063;DHT22;16889;67.864;24.990;2024-01-25T09:12:59;-25.80;99.90
30063;DHT22;16889;67.864;24.990;2024-01-25T09:17:44;-26.10;99.90
30063;DHT22;16889;67.864;24.990;2024-01-25T09:22:30;-25.90;99.90
30063;DHT22;16889;67.864;24.990;2024-01-25T09:27:16;-25.70;99.90
30063;DHT22;16889;67.864;24.990;2024-01-25T09:32:02;-26.20;99.90
30063;DHT22;16889;67.864;24.990;2024-01-25T09:36:48;-26.00;99.90
30063;DHT22;16889;67.864;24.990;2024-01-25T09:41:34;-25.70;99.90
30063;DHT22;16889;67.864;24.990;2024-01-25T09:46:20;-25.60;99.90
30063;DHT22;16889;67.864;24.990;2024-01-25T09:51:06;-25.80;99.90
30063;DHT22;16889;67.864;24.990;2024-01-25T09:56:13;-25.80;99.90
30063;DHT22;16889;67.864;24.990;2024-01-25T10:00:59;-26.00;99.90
30063;DHT22;16889;67.864;24.990;2024-01-25T10:05:45;-26.00;99.90
30063;DHT22;16889;67.864;24.990;2024-01-25T10:10:32;-25.90;99.90
30063;DHT22;16889;67.864;24.990;2024-01-25T10:15:19;-25.80;99.90
30063;DHT22;16889;67.864;24.990;2024-01-25T10:20:06;-25.70;99.90
30063;DHT22;16889;67.864;24.990;2024-01-25T10:24:56;-25.90;99.90
30063;DHT22;16889;67.864;24.990;2024-01-25T10:29:42;-26.00;99.90
30063;DHT22;16889;67.864;24.990;2024-01-25T10:34:29;-25.80;99.90
30063;DHT22;16889;67.864;24.990;2024-01-25T10:39:17;-25.90;99.90
30063;DHT22;16889;67.864;24.990;2024-01-25T10:44:04;-25.50;99.90
30063;DHT22;16889;67.864;24.990;2024-01-25T10:48:52;-25.40;99.90
30063;DHT22;16889;67.864;24.990;2024-01-25T10:53:39;-25.10;99.90
30063;DHT22;16889;67.864;24.990;2024-01-25T10:58:33;-24.80;99.90
30063;DHT22;16889;67.864;24.990;2024-01-25T11:03:25;-24.60;99.90
30063;DHT22;16889;67.864;24.990;2024-01-25T11:08:20;-24.50;99.90
30063;DHT22;16889;67.864;24.990;2024-01-25T11:13:14;-24.70;99.90
30063;DHT22;16889;67.864;24.990;2024-01-25T11:18:01;-25.00;99.90
30063;DHT22;16889;67.864;24.990;2024-01-25T11:22:47;-25.00;99.90
30063;DHT22;16889;67.864;24.990;2024-01-25T11:27:33;-25.20;99.90
30063;DHT22;16889;67.864;24.990;2024-01-25T11:32:19;-25.00;99.90
30063;DHT22;16889;67.864;24.990;2024-01-25T11:37:05;-24.70;99.90
30063;DHT22;16889;67.864;24.990;2024-01-25T11:41:51;-24.60;99.90
30063;DHT22;16889;67.864;24.990;2024-01-25T11:46:37;-24.60;99.90
30063;DHT22;16889;67.864;24.990;2024-01-25T11:51:23;-24.70;99.90
30063;DHT22;16889;67.864;24.990;2024-01-25T11:56:16;-25.00;99.90
30063;DHT22;16889;67.864;24.990;2024-01-25T12:01:06;-25.20;99.90
30063;DHT22;16889;67.864;24.990;2024-01-25T12:05:53;-25.50;99.90
30063;DHT22;16889;67.864;24.990;2024-01-25T12:10:40;-25.70;99.90
30063;DHT22;16889;67.864;24.990;2024-01-25T12:15:25;-25.40;99.90
30063;DHT22;16889;67.864;24.990;2024-01-25T12:20:11;-25.20;99.90
30063;DHT22;16889;67.864;24.990;2024-01-25T12:24:57;-25.00;99.90
30063;DHT22;16889;67.864;24.990;2024-01-25T12:29:43;-25.10;99.90
30063;DHT22;16889;67.864;24.990;2024-01-25T12:34:29;-24.90;99.90
30063;DHT22;16889;67.864;24.990;2024-01-25T12:39:15;-25.10;99.90
30063;DHT22;16889;67.864;24.990;2024-01-25T12:44:01;-25.00;99.90
30063;DHT22;16889;67.864;24.990;2024-01-25T12:48:47;-24.90;99.90
30063;DHT22;16889;67.864;24.990;2024-01-25T12:53:33;-25.00;99.90
30063;DHT22;16889;67.864;24.990;2024-01-25T12:58:19;-25.40;99.90
30063;DHT22;16889;67.864;24.990;2024-01-25T13:03:07;-25.30;99.90
30063;DHT22;16889;67.864;24.990;2024-01-25T13:07:55;-25.10;99.90
30063;DHT22;16889;67.864;24.990;2024-01-25T13:12:41;-25.30;99.90
30063;DHT22;16889;67.864;24.990;2024-01-25T13:17:27;-25.40;99.90
30063;DHT22;16889;67.864;24.990;2024-01-25T13:22:13;-25.30;99.90
30063;DHT22;16889;67.864;24.990;2024-01-25T13:26:59;-25.30;99.90
30063;DHT22;16889;67.864;24.990;2024-01-25T13:31:45;-25.20;99.90
30063;DHT22;16889;67.864;24.990;2024-01-25T13:36:31;-25.40;99.90
30063;DHT22;16889;67.864;24.990;2024-01-25T13:41:17;-25.80;99.90
30063;DHT22;16889;67.864;24.990;2024-01-25T13:46:03;-25.80;99.90
30063;DHT22;16889;67.864;24.990;2024-01-25T13:50:49;-26.00;99.90
30063;DHT22;16889;67.864;24.990;2024-01-25T13:55:35;-26.20;99.90
30063;DHT22;16889;67.864;24.990;2024-01-25T14:00:21;-26.00;99.90
30063;DHT22;16889;67.864;24.990;2024-01-25T14:05:08;-25.80;99.90
30063;DHT22;16889;67.864;24.990;2024-01-25T14:09:54;-25.90;99.90
30063;DHT22;16889;67.864;24.990;2024-01-25T14:14:41;-26.10;99.90
30063;DHT22;16889;67.864;24.990;2024-01-25T14:19:27;-26.20;99.90
30063;DHT22;16889;67.864;24.990;2024-01-25T14:24:13;-26.30;99.90
30063;DHT22;16889;67.864;24.990;2024-01-25T14:28:59;-26.00;99.90
30063;DHT22;16889;67.864;24.990;2024-01-25T14:33:45;-25.80;99.90
30063;DHT22;16889;67.864;24.990;2024-01-25T14:38:31;-25.70;99.90
30063;DHT22;16889;67.864;24.990;2024-01-25T14:43:17;-25.70;99.90
30063;DHT22;16889;67.864;24.990;2024-01-25T14:48:04;-25.60;99.90
30063;DHT22;16889;67.864;24.990;2024-01-25T14:52:51;-25.60;99.90
30063;DHT22;16889;67.864;24.990;2024-01-25T14:57:37;-25.60;99.90
30063;DHT22;16889;67.864;24.990;2024-01-25T15:02:23;-25.70;99.90
30063;DHT22;16889;67.864;24.990;2024-01-25T15:07:09;-25.70;99.90
30063;DHT22;16889;67.864;24.990;2024-01-25T15:11:55;-25.80;99.90
30063;DHT22;16889;67.864;24.990;2024-01-25T15:16:40;-25.90;99.90
30063;DHT22;16889;67.864;24.990;2024-01-25T15:21:26;-26.00;99.90
30063;DHT22;16889;67.864;24.990;2024-01-25T15:26:12;-26.20;99.90
30063;DHT22;16889;67.864;24.990;2024-01-25T15:30:58;-26.00;99.90
30063;DHT22;16889;67.864;24.990;2024-01-25T15:35:44;-25.90;99.90
30063;DHT22;16889;67.864;24.990;2024-01-25T15:40:33;-25.80;99.90
30063;DHT22;16889;67.864;24.990;2024-01-25T15:45:19;-25.90;99.90
30063;DHT22;16889;67.864;24.990;2024-01-25T15:50:06;-26.20;99.90
30063;DHT22;16889;67.864;24.990;2024-01-25T15:54:52;-26.00;99.90
30063;DHT22;16889;67.864;24.990;2024-01-25T15:59:38;-25.90;99.90
30063;DHT22;16889;67.864;24.990;2024-01-25T16:04:24;-26.00;99.90
30063;DHT22;16889;67.864;24.990;2024-01-25T16:09:10;-26.00;99.90
30063;DHT22;16889;67.864;24.990;2024-01-25T16:13:55;-26.10;99.90
30063;DHT22;16889;67.864;24.990;2024-01-25T16:18:41;-26.00;99.90
30063;DHT22;16889;67.864;24.990;2024-01-25T16:23:28;-26.30;99.90
30063;DHT22;16889;67.864;24.990;2024-01-25T16:28:13;-26.00;99.90
30063;DHT22;16889;67.864;24.990;2024-01-25T16:33:00;-25.80;99.90
30063;DHT22;16889;67.864;24.990;2024-01-25T16:37:46;-25.90;99.90
30063;DHT22;16889;67.864;24.990;2024-01-25T16:42:32;-25.70;99.90
30063;DHT22;16889;67.864;24.990;2024-01-25T16:47:18;-25.60;99.90
30063;DHT22;16889;67.864;24.990;2024-01-25T16:52:04;-25.50;99.90
30063;DHT22;16889;67.864;24.990;2024-01-25T16:56:50;-25.70;99.90
30063;DHT22;16889;67.864;24.990;2024-01-25T17:01:36;-25.80;99.90
30063;DHT22;16889;67.864;24.990;2024-01-25T17:06:21;-26.00;99.90
30063;DHT22;16889;67.864;24.990;2024-01-25T17:11:09;-25.90;99.90
30063;DHT22;16889;67.864;24.990;2024-01-25T17:15:55;-26.10;99.90
30063;DHT22;16889;67.864;24.990;2024-01-25T17:20:41;-26.10;99.90
30063;DHT22;16889;67.864;24.990;2024-01-25T17:25:27;-26.20;99.90
30063;DHT22;16889;67.864;24.990;2024-01-25T17:30:13;-26.10;99.90
30063;DHT22;16889;67.864;24.990;2024-01-25T17:34:59;-26.40;99.90
30063;DHT22;16889;67.864;24.990;2024-01-25T17:39:45;-26.10;99.90
30063;DHT22;16889;67.864;24.990;2024-01-25T17:44:31;-25.90;99.90
30063;DHT22;16889;67.864;24.990;2024-01-25T17:49:17;-25.70;99.90
30063;DHT22;16889;67.864;24.990;2024-01-25T17:54:03;-26.10;99.90
30063;DHT22;16889;67.864;24.990;2024-01-25T17:58:49;-26.00;99.90
30063;DHT22;16889;67.864;24.990;2024-01-25T18:03:35;-25.70;99.90
30063;DHT22;16889;67.864;24.990;2024-01-25T18:08:21;-25.80;99.90
30063;DHT22;16889;67.864;24.990;2024-01-25T18:13:06;-25.90;99.90
30063;DHT22;16889;67.864;24.990;2024-01-25T18:17:52;-26.10;99.90
30063;DHT22;16889;67.864;24.990;2024-01-25T18:22:38;-25.90;99.90
30063;DHT22;16889;67.864;24.990;2024-01-25T18:27:24;-25.70;99.90
30063;DHT22;16889;67.864;24.990;2024-01-25T18:32:10;-25.70;99.90
30063;DHT22;16889;67.864;24.990;2024-01-25T18:36:56;-25.70;99.90
30063;DHT22;16889;67.864;24.990;2024-01-25T18:41:42;-25.50;99.90
30063;DHT22;16889;67.864;24.990;2024-01-25T18:46:28;-25.80;99.90
30063;DHT22;16889;67.864;24.990;2024-01-25T18:51:14;-25.60;99.90
30063;DHT22;16889;67.864;24.990;2024-01-25T18:56:00;-25.30;99.90
30063;DHT22;16889;67.864;24.990;2024-01-25T19:00:47;-25.50;99.90
30063;DHT22;16889;67.864;24.990;2024-01-25T19:05:33;-25.70;99.90
30063;DHT22;16889;67.864;24.990;2024-01-25T19:10:19;-25.90;99.90
30063;DHT22;16889;67.864;24.990;2024-01-25T19:15:05;-26.20;99.90
30063;DHT22;16889;67.864;24.990;2024-01-25T19:19:53;-25.90;99.90
30063;DHT22;16889;67.864;24.990;2024-01-25T19:24:39;-25.90;99.90
30063;DHT22;16889;67.864;24.990;2024-01-25T19:29:25;-25.80;99.90
30063;DHT22;16889;67.864;24.990;2024-01-25T19:34:11;-25.60;99.90
30063;DHT22;16889;67.864;24.990;2024-01-25T19:38:57;-25.40;99.90
30063;DHT22;16889;67.864;24.990;2024-01-25T19:43:43;-25.50;99.90
30063;DHT22;16889;67.864;24.990;2024-01-25T19:48:29;-25.40;99.90
30063;DHT22;16889;67.864;24.990;2024-01-25T19:53:15;-25.30;99.90
30063;DHT22;16889;67.864;24.990;2024-01-25T19:58:01;-25.70;99.90
30063;DHT22;16889;67.864;24.990;2024-01-25T20:02:48;-25.80;99.90
30063;DHT22;16889;67.864;24.990;2024-01-25T20:07:34;-25.90;99.90
30063;DHT22;16889;67.864;24.990;2024-01-25T20:12:21;-25.70;99.90
30063;DHT22;16889;67.864;24.990;2024-01-25T20:17:06;-25.50;99.90
30063;DHT22;16889;67.864;24.990;2024-01-25T20:21:52;-25.60;99.90
30063;DHT22;16889;67.864;24.990;2024-01-25T20:26:38;-25.50;99.90
30063;DHT22;16889;67.864;24.990;2024-01-25T20:31:24;-25.40;99.90
30063;DHT22;16889;67.864;24.990;2024-01-25T20:36:11;-25.30;99.90
30063;DHT22;16889;67.864;24.990;2024-01-25T20:40:57;-25.50;99.90
30063;DHT22;16889;67.864;24.990;2024-01-25T20:45:43;-25.40;99.90
30063;DHT22;16889;67.864;24.990;2024-01-25T20:50:29;-25.50;99.90
30063;DHT22;16889;67.864;24.990;2024-01-25T20:55:15;-25.30;99.90
30063;DHT22;16889;67.864;24.990;2024-01-25T21:00:01;-25.30;99.90
30063;DHT22;16889;67.864;24.990;2024-01-25T21:04:48;-25.90;99.90
30063;DHT22;16889;67.864;24.990;2024-01-25T21:09:34;-26.00;99.90
30063;DHT22;16889;67.864;24.990;2024-01-25T21:14:20;-25.90;99.90
30063;DHT22;16889;67.864;24.990;2024-01-25T21:19:08;-25.80;99.90
30063;DHT22;16889;67.864;24.990;2024-01-25T21:23:53;-26.10;99.90
30063;DHT22;16889;67.864;24.990;2024-01-25T21:28:39;-25.90;99.90
30063;DHT22;16889;67.864;24.990;2024-01-25T21:33:26;-25.70;99.90
30063;DHT22;16889;67.864;24.990;2024-01-25T21:38:12;-26.00;99.90
30063;DHT22;16889;67.864;24.990;2024-01-25T21:42:58;-26.10;99.90
30063;DHT22;16889;67.864;24.990;2024-01-25T21:47:45;-26.20;99.90
30063;DHT22;16889;67.864;24.990;2024-01-25T21:52:31;-26.00;99.90
30063;DHT22;16889;67.864;24.990;2024-01-25T21:57:20;-25.70;99.90
30063;DHT22;16889;67.864;24.990;2024-01-25T22:02:06;-25.70;99.90
30063;DHT22;16889;67.864;24.990;2024-01-25T22:06:52;-25.50;99.90
30063;DHT22;16889;67.864;24.990;2024-01-25T22:11:38;-25.60;99.90
30063;DHT22;16889;67.864;24.990;2024-01-25T22:16:23;-25.50;99.90
30063;DHT22;16889;67.864;24.990;2024-01-25T22:21:09;-25.30;99.90
30063;DHT22;16889;67.864;24.990;2024-01-25T22:25:55;-25.80;99.90
30063;DHT22;16889;67.864;24.990;2024-01-25T22:30:41;-25.60;99.90
30063;DHT22;16889;67.864;24.990;2024-01-25T22:35:27;-25.40;99.90
30063;DHT22;16889;67.864;24.990;2024-01-25T22:40:13;-25.60;99.90
30063;DHT22;16889;67.864;24.990;2024-01-25T22:44:59;-25.30;99.90
30063;DHT22;16889;67.864;24.990;2024-01-25T22:49:45;-25.30;99.90
30063;DHT22;16889;67.864;24.990;2024-01-25T22:54:31;-25.50;99.90
30063;DHT22;16889;67.864;24.990;2024-01-25T22:59:17;-25.20;99.90
30063;DHT22;16889;67.864;24.990;2024-01-25T23:04:02;-25.00;99.90
30063;DHT22;16889;67.864;24.990;2024-01-25T23:08:48;-25.10;99.90
30063;DHT22;16889;67.864;24.990;2024-01-25T23:13:35;-25.10;99.90
30063;DHT22;16889;67.864;24.990;2024-01-25T23:18:21;-25.10;99.90
30063;DHT22;16889;67.864;24.990;2024-01-25T23:23:07;-25.10;99.90
30063;DHT22;16889;67.864;24.990;2024-01-25T23:27:53;-25.60;99.90
30063;DHT22;16889;67.864;24.990;2024-01-25T23:32:39;-25.80;99.90
30063;DHT22;16889;67.864;24.990;2024-01-25T23:37:25;-25.80;99.90
30063;DHT22;16889;67.864;24.990;2024-01-25T23:42:11;-25.80;99.90
30063;DHT22;16889;67.864;24.990;2024-01-25T23:46:56;-25.40;99.90
30063;DHT22;16889;67.864;24.990;2024-01-25T23:51:43;-25.30;99.90
30063;DHT22;16889;67.864;24.990;2024-01-25T23:56:31;-25.70;99.90
